sensor_id;sensor_type;location;lat;lon;timestamp;pressure;altitude;pressure_sealevel;temperature;humidity
62926;BME280;55732;52.248;-0.844;2022-08-01T00:00:05;101050.11;;;18.62;61.14
62926;BME280;55732;52.248;-0.844;2022-08-01T00:02:31;101053.36;;;18.61;61.09
62926;BME280;55732;52.248;-0.844;2022-08-01T00:04:57;101051.60;;;18.60;61.02
62926;BME280;55732;52.248;-0.844;2022-08-01T00:07:22;101049.45;;;18.60;61.14
62926;BME280;55732;52.248;-0.844;2022-08-01T00:09:48;101046.98;;;18.58;61.18
62926;BME280;55732;52.248;-0.844;2022-08-01T00:12:14;101042.89;;;18.58;61.10
62926;BME280;55732;52.248;-0.844;2022-08-01T00:14:39;101048.08;;;18.56;61.35
62926;BME280;55732;52.248;-0.844;2022-08-01T00:17:05;101053.26;;;18.56;61.63
62926;BME280;55732;52.248;-0.844;2022-08-01T00:19:30;101054.71;;;18.55;61.64
62926;BME280;55732;52.248;-0.844;2022-08-01T00:21:56;101055.30;;;18.53;61.56
62926;BME280;55732;52.248;-0.844;2022-08-01T00:24:21;101048.01;;;18.52;61.73
62926;BME280;55732;52.248;-0.844;2022-08-01T00:26:47;101047.49;;;18.52;61.89
62926;BME280;55732;52.248;-0.844;2022-08-01T00:29:12;101058.05;;;18.51;61.84
62926;BME280;55732;52.248;-0.844;2022-08-01T00:31:37;101059.13;;;18.51;61.97
62926;BME280;55732;52.248;-0.844;2022-08-01T00:34:03;101054.79;;;18.46;62.13
62926;BME280;55732;52.248;-0.844;2022-08-01T00:36:28;101071.06;;;18.51;62.01
62926;BME280;55732;52.248;-0.844;2022-08-01T00:38:54;101074.65;;;18.50;61.89
62926;BME280;55732;52.248;-0.844;2022-08-01T00:41:20;101068.95;;;18.50;61.99
62926;BME280;55732;52.248;-0.844;2022-08-01T00:43:45;101066.45;;;18.50;62.04
62926;BME280;55732;52.248;-0.844;2022-08-01T00:46:10;101066.64;;;18.50;62.06
62926;BME280;55732;52.248;-0.844;2022-08-01T00:48:36;101068.44;;;18.49;61.82
62926;BME280;55732;52.248;-0.844;2022-08-01T00:51:03;101073.85;;;18.46;61.75
62926;BME280;55732;52.248;-0.844;2022-08-01T00:53:29;101074.61;;;18.44;61.64
62926;BME280;55732;52.248;-0.844;2022-08-01T00:55:56;101073.96;;;18.41;61.64
62926;BME280;55732;52.248;-0.844;2022-08-01T00:58:21;101074.78;;;18.38;61.59
62926;BME280;55732;52.248;-0.844;2022-08-01T01:00:47;101069.86;;;18.35;61.66
62926;BME280;55732;52.248;-0.844;2022-08-01T01:03:13;101071.16;;;18.33;61.72
62926;BME280;55732;52.248;-0.844;2022-08-01T01:05:45;101076.24;;;18.29;61.76
62926;BME280;55732;52.248;-0.844;2022-08-01T01:08:30;101078.09;;;18.27;61.92
62926;BME280;55732;52.248;-0.844;2022-08-01T01:11:28;101072.09;;;18.25;61.88
62926;BME280;55732;52.248;-0.844;2022-08-01T01:14:10;101076.42;;;18.22;61.90
62926;BME280;55732;52.248;-0.844;2022-08-01T01:16:40;101080.74;;;18.20;62.14
62926;BME280;55732;52.248;-0.844;2022-08-01T01:19:08;101073.09;;;18.20;62.21
62926;BME280;55732;52.248;-0.844;2022-08-01T01:24:50;101061.70;;;18.19;62.33
62926;BME280;55732;52.248;-0.844;2022-08-01T01:27:24;101055.48;;;18.18;62.50
62926;BME280;55732;52.248;-0.844;2022-08-01T01:29:56;101051.43;;;18.17;62.44
62926;BME280;55732;52.248;-0.844;2022-08-01T01:32:28;101054.85;;;18.16;62.20
62926;BME280;55732;52.248;-0.844;2022-08-01T01:34:59;101060.77;;;18.15;62.09
62926;BME280;55732;52.248;-0.844;2022-08-01T01:37:27;101067.23;;;18.12;62.27
62926;BME280;55732;52.248;-0.844;2022-08-01T01:39:55;101067.11;;;18.09;61.94
62926;BME280;55732;52.248;-0.844;2022-08-01T01:42:24;101063.55;;;18.09;61.84
62926;BME280;55732;52.248;-0.844;2022-08-01T01:44:51;101061.98;;;18.09;61.94
62926;BME280;55732;52.248;-0.844;2022-08-01T01:47:17;101060.22;;;18.07;61.72
62926;BME280;55732;52.248;-0.844;2022-08-01T01:49:45;101054.89;;;18.06;61.76
62926;BME280;55732;52.248;-0.844;2022-08-01T01:52:13;101058.47;;;18.06;61.81
62926;BME280;55732;52.248;-0.844;2022-08-01T01:54:48;101055.34;;;18.03;61.52
62926;BME280;55732;52.248;-0.844;2022-08-01T01:57:16;101056.27;;;18.01;61.40
62926;BME280;55732;52.248;-0.844;2022-08-01T01:59:44;101062.22;;;17.98;61.28
62926;BME280;55732;52.248;-0.844;2022-08-01T02:02:11;101061.55;;;17.96;61.19
62926;BME280;55732;52.248;-0.844;2022-08-01T02:04:40;101052.88;;;17.94;60.99
62926;BME280;55732;52.248;-0.844;2022-08-01T02:07:12;101046.52;;;17.92;60.95
62926;BME280;55732;52.248;-0.844;2022-08-01T02:09:41;101050.51;;;17.89;60.90
62926;BME280;55732;52.248;-0.844;2022-08-01T02:12:10;101050.58;;;17.86;60.86
62926;BME280;55732;52.248;-0.844;2022-08-01T02:14:38;101051.33;;;17.84;60.79
62926;BME280;55732;52.248;-0.844;2022-08-01T02:17:08;101046.94;;;17.82;60.86
62926;BME280;55732;52.248;-0.844;2022-08-01T02:19:35;101049.70;;;17.78;61.00
62926;BME280;55732;52.248;-0.844;2022-08-01T02:22:27;101052.63;;;17.75;61.12
62926;BME280;55732;52.248;-0.844;2022-08-01T02:24:55;101053.39;;;17.72;61.22
62926;BME280;55732;52.248;-0.844;2022-08-01T02:27:27;101050.45;;;17.69;61.23
62926;BME280;55732;52.248;-0.844;2022-08-01T02:30:02;101054.25;;;17.66;61.07
62926;BME280;55732;52.248;-0.844;2022-08-01T02:32:39;101055.56;;;17.62;61.09
62926;BME280;55732;52.248;-0.844;2022-08-01T02:35:11;101051.71;;;17.59;61.16
62926;BME280;55732;52.248;-0.844;2022-08-01T02:37:38;101047.39;;;17.53;61.03
62926;BME280;55732;52.248;-0.844;2022-08-01T02:40:05;101046.98;;;17.47;61.04
62926;BME280;55732;52.248;-0.844;2022-08-01T02:42:34;101046.27;;;17.40;60.96
62926;BME280;55732;52.248;-0.844;2022-08-01T02:45:02;101047.34;;;17.31;61.04
62926;BME280;55732;52.248;-0.844;2022-08-01T02:47:28;101048.83;;;17.28;61.20
62926;BME280;55732;52.248;-0.844;2022-08-01T02:49:55;101047.80;;;17.25;61.22
62926;BME280;55732;52.248;-0.844;2022-08-01T02:52:23;101052.10;;;17.24;61.17
62926;BME280;55732;52.248;-0.844;2022-08-01T02:54:51;101047.73;;;17.22;61.18
62926;BME280;55732;52.248;-0.844;2022-08-01T02:57:20;101049.73;;;17.19;60.94
62926;BME280;55732;52.248;-0.844;2022-08-01T02:59:47;101054.60;;;17.16;60.98
62926;BME280;55732;52.248;-0.844;2022-08-01T03:02:16;101059.16;;;17.11;61.03
62926;BME280;55732;52.248;-0.844;2022-08-01T03:04:42;101063.11;;;17.09;61.16
62926;BME280;55732;52.248;-0.844;2022-08-01T03:07:10;101061.33;;;17.09;61.02
62926;BME280;55732;52.248;-0.844;2022-08-01T03:09:39;101058.52;;;17.07;60.94
62926;BME280;55732;52.248;-0.844;2022-08-01T03:12:10;101063.53;;;17.06;60.96
62926;BME280;55732;52.248;-0.844;2022-08-01T03:14:38;101067.27;;;17.06;60.90
62926;BME280;55732;52.248;-0.844;2022-08-01T03:17:05;101060.52;;;17.05;60.85
62926;BME280;55732;52.248;-0.844;2022-08-01T03:19:33;101054.86;;;17.03;60.98
62926;BME280;55732;52.248;-0.844;2022-08-01T03:21:59;101052.97;;;17.00;61.14
62926;BME280;55732;52.248;-0.844;2022-08-01T03:24:28;101053.95;;;16.96;61.07
62926;BME280;55732;52.248;-0.844;2022-08-01T03:26:56;101054.55;;;16.92;61.23
62926;BME280;55732;52.248;-0.844;2022-08-01T03:29:25;101058.11;;;16.92;61.39
62926;BME280;55732;52.248;-0.844;2022-08-01T03:31:51;101059.34;;;16.93;61.45
62926;BME280;55732;52.248;-0.844;2022-08-01T03:34:17;101060.73;;;16.94;61.29
62926;BME280;55732;52.248;-0.844;2022-08-01T03:37:22;101060.56;;;16.94;61.35
62926;BME280;55732;52.248;-0.844;2022-08-01T03:39:58;101060.92;;;16.94;61.39
62926;BME280;55732;52.248;-0.844;2022-08-01T03:42:34;101057.73;;;16.93;61.43
62926;BME280;55732;52.248;-0.844;2022-08-01T03:45:06;101057.75;;;16.92;61.31
62926;BME280;55732;52.248;-0.844;2022-08-01T03:47:34;101059.10;;;16.87;61.05
62926;BME280;55732;52.248;-0.844;2022-08-01T03:50:06;101058.67;;;16.82;61.14
62926;BME280;55732;52.248;-0.844;2022-08-01T03:52:33;101060.40;;;16.75;61.23
62926;BME280;55732;52.248;-0.844;2022-08-01T03:55:04;101059.40;;;16.72;61.27
62926;BME280;55732;52.248;-0.844;2022-08-01T03:57:32;101058.89;;;16.71;61.42
62926;BME280;55732;52.248;-0.844;2022-08-01T03:59:59;101053.07;;;16.68;61.09
62926;BME280;55732;52.248;-0.844;2022-08-01T04:02:29;101049.41;;;16.63;61.18
62926;BME280;55732;52.248;-0.844;2022-08-01T04:04:55;101049.46;;;16.59;61.39
62926;BME280;55732;52.248;-0.844;2022-08-01T04:07:29;101049.86;;;16.56;61.37
62926;BME280;55732;52.248;-0.844;2022-08-01T04:09:55;101055.44;;;16.53;61.18
62926;BME280;55732;52.248;-0.844;2022-08-01T04:12:21;101055.62;;;16.43;61.21
62926;BME280;55732;52.248;-0.844;2022-08-01T04:14:47;101059.32;;;16.35;61.31
62926;BME280;55732;52.248;-0.844;2022-08-01T04:17:14;101062.94;;;16.31;61.58
62926;BME280;55732;52.248;-0.844;2022-08-01T04:19:40;101059.67;;;16.25;61.52
62926;BME280;55732;52.248;-0.844;2022-08-01T04:22:06;101061.73;;;16.18;61.52
62926;BME280;55732;52.248;-0.844;2022-08-01T04:24:34;101058.98;;;16.13;62.05
62926;BME280;55732;52.248;-0.844;2022-08-01T04:27:06;101059.55;;;16.11;62.13
62926;BME280;55732;52.248;-0.844;2022-08-01T04:29:36;101060.52;;;16.06;62.09
62926;BME280;55732;52.248;-0.844;2022-08-01T04:32:02;101064.86;;;16.01;62.26
62926;BME280;55732;52.248;-0.844;2022-08-01T04:34:31;101065.50;;;15.95;62.24
62926;BME280;55732;52.248;-0.844;2022-08-01T04:36:59;101067.69;;;15.92;62.47
62926;BME280;55732;52.248;-0.844;2022-08-01T04:39:28;101069.68;;;15.88;62.54
62926;BME280;55732;52.248;-0.844;2022-08-01T04:42:00;101073.61;;;15.86;62.74
62926;BME280;55732;52.248;-0.844;2022-08-01T04:44:29;101068.42;;;15.89;62.78
62926;BME280;55732;52.248;-0.844;2022-08-01T04:46:59;101070.92;;;15.88;62.94
62926;BME280;55732;52.248;-0.844;2022-08-01T04:49:26;101069.67;;;15.88;62.76
62926;BME280;55732;52.248;-0.844;2022-08-01T04:51:53;101064.33;;;15.91;62.85
62926;BME280;55732;52.248;-0.844;2022-08-01T04:54:30;101065.13;;;15.94;62.92
62926;BME280;55732;52.248;-0.844;2022-08-01T04:57:00;101071.48;;;15.97;62.79
62926;BME280;55732;52.248;-0.844;2022-08-01T04:59:26;101073.61;;;15.98;62.86
62926;BME280;55732;52.248;-0.844;2022-08-01T05:02:05;101071.66;;;15.98;62.80
62926;BME280;55732;52.248;-0.844;2022-08-01T05:04:31;101069.34;;;15.98;62.87
62926;BME280;55732;52.248;-0.844;2022-08-01T05:06:56;101071.11;;;15.99;62.76
62926;BME280;55732;52.248;-0.844;2022-08-01T05:09:22;101073.96;;;15.98;62.73
62926;BME280;55732;52.248;-0.844;2022-08-01T05:11:47;101073.28;;;15.96;62.84
62926;BME280;55732;52.248;-0.844;2022-08-01T05:14:12;101079.67;;;15.96;62.91
62926;BME280;55732;52.248;-0.844;2022-08-01T05:16:38;101084.98;;;15.98;63.05
62926;BME280;55732;52.248;-0.844;2022-08-01T05:19:03;101090.06;;;16.03;62.89
62926;BME280;55732;52.248;-0.844;2022-08-01T05:21:29;101083.83;;;16.05;62.82
62926;BME280;55732;52.248;-0.844;2022-08-01T05:23:54;101085.36;;;16.07;62.79
62926;BME280;55732;52.248;-0.844;2022-08-01T05:26:19;101085.73;;;16.07;62.75
62926;BME280;55732;52.248;-0.844;2022-08-01T05:28:45;101081.98;;;16.07;62.85
62926;BME280;55732;52.248;-0.844;2022-08-01T05:31:10;101078.23;;;16.08;62.60
62926;BME280;55732;52.248;-0.844;2022-08-01T05:33:36;101079.10;;;16.11;62.84
62926;BME280;55732;52.248;-0.844;2022-08-01T05:36:02;101073.63;;;16.08;62.73
62926;BME280;55732;52.248;-0.844;2022-08-01T05:38:27;101069.64;;;16.03;62.68
62926;BME280;55732;52.248;-0.844;2022-08-01T05:40:53;101073.38;;;16.02;62.86
62926;BME280;55732;52.248;-0.844;2022-08-01T05:43:18;101079.39;;;16.04;62.93
62926;BME280;55732;52.248;-0.844;2022-08-01T05:45:44;101080.73;;;16.07;62.83
62926;BME280;55732;52.248;-0.844;2022-08-01T05:48:11;101078.70;;;16.13;62.95
62926;BME280;55732;52.248;-0.844;2022-08-01T05:50:36;101077.36;;;16.19;62.61
62926;BME280;55732;52.248;-0.844;2022-08-01T05:53:02;101079.42;;;16.22;62.68
62926;BME280;55732;52.248;-0.844;2022-08-01T05:55:27;101082.98;;;16.23;62.45
62926;BME280;55732;52.248;-0.844;2022-08-01T05:57:53;101085.26;;;16.25;62.54
62926;BME280;55732;52.248;-0.844;2022-08-01T06:00:18;101084.85;;;16.28;62.37
62926;BME280;55732;52.248;-0.844;2022-08-01T06:02:43;101087.61;;;16.33;62.25
62926;BME280;55732;52.248;-0.844;2022-08-01T06:05:09;101087.96;;;16.33;62.10
62926;BME280;55732;52.248;-0.844;2022-08-01T06:07:35;101086.05;;;16.31;62.11
62926;BME280;55732;52.248;-0.844;2022-08-01T06:10:02;101082.45;;;16.33;62.21
62926;BME280;55732;52.248;-0.844;2022-08-01T06:12:27;101082.77;;;16.36;61.89
62926;BME280;55732;52.248;-0.844;2022-08-01T06:14:53;101081.02;;;16.34;61.77
62926;BME280;55732;52.248;-0.844;2022-08-01T06:17:18;101084.23;;;16.32;61.86
62926;BME280;55732;52.248;-0.844;2022-08-01T06:19:44;101082.97;;;16.34;61.92
62926;BME280;55732;52.248;-0.844;2022-08-01T06:22:09;101081.34;;;16.36;61.84
62926;BME280;55732;52.248;-0.844;2022-08-01T06:24:34;101085.38;;;16.39;61.74
62926;BME280;55732;52.248;-0.844;2022-08-01T06:27:00;101083.65;;;16.47;61.89
62926;BME280;55732;52.248;-0.844;2022-08-01T06:29:25;101085.09;;;16.55;61.51
62926;BME280;55732;52.248;-0.844;2022-08-01T06:31:51;101083.77;;;16.59;61.49
62926;BME280;55732;52.248;-0.844;2022-08-01T06:34:16;101089.96;;;16.64;61.24
62926;BME280;55732;52.248;-0.844;2022-08-01T06:36:41;101090.83;;;16.64;60.99
62926;BME280;55732;52.248;-0.844;2022-08-01T06:39:07;101090.71;;;16.59;61.09
62926;BME280;55732;52.248;-0.844;2022-08-01T06:41:32;101094.83;;;16.58;61.25
62926;BME280;55732;52.248;-0.844;2022-08-01T06:43:58;101096.94;;;16.59;60.90
62926;BME280;55732;52.248;-0.844;2022-08-01T06:46:25;101099.14;;;16.54;61.04
62926;BME280;55732;52.248;-0.844;2022-08-01T06:48:50;101098.92;;;16.56;61.36
62926;BME280;55732;52.248;-0.844;2022-08-01T06:51:15;101099.59;;;16.60;61.21
62926;BME280;55732;52.248;-0.844;2022-08-01T06:53:45;101096.91;;;16.61;61.04
62926;BME280;55732;52.248;-0.844;2022-08-01T06:56:10;101096.67;;;16.65;60.85
62926;BME280;55732;52.248;-0.844;2022-08-01T06:58:36;101092.33;;;16.70;60.81
62926;BME280;55732;52.248;-0.844;2022-08-01T07:01:04;101091.48;;;16.77;60.86
62926;BME280;55732;52.248;-0.844;2022-08-01T07:03:36;101097.45;;;16.81;60.80
62926;BME280;55732;52.248;-0.844;2022-08-01T07:06:02;101099.36;;;16.83;60.75
62926;BME280;55732;52.248;-0.844;2022-08-01T07:08:28;101092.35;;;16.88;60.60
62926;BME280;55732;52.248;-0.844;2022-08-01T07:10:53;101101.75;;;16.98;60.70
62926;BME280;55732;52.248;-0.844;2022-08-01T07:13:19;101100.73;;;17.05;60.27
62926;BME280;55732;52.248;-0.844;2022-08-01T07:15:48;101106.27;;;17.12;60.27
62926;BME280;55732;52.248;-0.844;2022-08-01T07:18:13;101107.55;;;17.20;59.90
62926;BME280;55732;52.248;-0.844;2022-08-01T07:20:39;101109.69;;;17.20;59.26
62926;BME280;55732;52.248;-0.844;2022-08-01T07:23:04;101107.08;;;17.17;59.17
62926;BME280;55732;52.248;-0.844;2022-08-01T07:25:30;101112.48;;;17.22;58.92
62926;BME280;55732;52.248;-0.844;2022-08-01T07:27:55;101108.80;;;17.28;58.77
62926;BME280;55732;52.248;-0.844;2022-08-01T07:30:21;101104.02;;;17.35;58.75
62926;BME280;55732;52.248;-0.844;2022-08-01T07:32:47;101108.02;;;17.41;58.65
62926;BME280;55732;52.248;-0.844;2022-08-01T07:35:12;101111.42;;;17.48;58.65
62926;BME280;55732;52.248;-0.844;2022-08-01T07:37:38;101114.55;;;17.51;58.36
62926;BME280;55732;52.248;-0.844;2022-08-01T07:40:04;101113.87;;;17.58;58.27
62926;BME280;55732;52.248;-0.844;2022-08-01T07:42:31;101114.77;;;17.67;58.24
62926;BME280;55732;52.248;-0.844;2022-08-01T07:44:56;101119.72;;;17.85;57.86
62926;BME280;55732;52.248;-0.844;2022-08-01T07:47:26;101122.96;;;18.07;57.29
62926;BME280;55732;52.248;-0.844;2022-08-01T07:49:58;101119.52;;;18.38;56.74
62926;BME280;55732;52.248;-0.844;2022-08-01T07:52:24;101112.98;;;18.65;56.16
62926;BME280;55732;52.248;-0.844;2022-08-01T07:54:49;101111.69;;;18.81;56.01
62926;BME280;55732;52.248;-0.844;2022-08-01T07:57:15;101107.85;;;18.90;55.14
62926;BME280;55732;52.248;-0.844;2022-08-01T07:59:40;101109.34;;;18.95;54.59
62926;BME280;55732;52.248;-0.844;2022-08-01T08:02:06;101108.46;;;18.94;54.00
62926;BME280;55732;52.248;-0.844;2022-08-01T08:04:31;101112.83;;;18.91;53.92
62926;BME280;55732;52.248;-0.844;2022-08-01T08:06:57;101120.58;;;18.82;53.61
62926;BME280;55732;52.248;-0.844;2022-08-01T08:09:22;101124.42;;;18.78;53.87
62926;BME280;55732;52.248;-0.844;2022-08-01T08:11:48;101122.47;;;18.71;53.44
62926;BME280;55732;52.248;-0.844;2022-08-01T08:14:15;101128.38;;;18.63;53.22
62926;BME280;55732;52.248;-0.844;2022-08-01T08:16:42;101132.05;;;18.58;53.26
62926;BME280;55732;52.248;-0.844;2022-08-01T08:19:07;101130.14;;;18.55;53.53
62926;BME280;55732;52.248;-0.844;2022-08-01T08:21:33;101133.17;;;18.55;53.53
62926;BME280;55732;52.248;-0.844;2022-08-01T08:23:58;101131.17;;;18.56;53.26
62926;BME280;55732;52.248;-0.844;2022-08-01T08:26:42;101123.41;;;18.62;53.01
62926;BME280;55732;52.248;-0.844;2022-08-01T08:29:08;101116.66;;;18.74;52.94
62926;BME280;55732;52.248;-0.844;2022-08-01T08:31:33;101114.31;;;18.96;52.60
62926;BME280;55732;52.248;-0.844;2022-08-01T08:33:58;101120.77;;;19.20;52.36
62926;BME280;55732;52.248;-0.844;2022-08-01T08:36:24;101122.80;;;19.36;52.05
62926;BME280;55732;52.248;-0.844;2022-08-01T08:38:49;101115.98;;;19.91;50.93
62926;BME280;55732;52.248;-0.844;2022-08-01T08:41:15;101110.00;;;20.81;49.23
62926;BME280;55732;52.248;-0.844;2022-08-01T08:43:41;101115.95;;;21.35;47.80
62926;BME280;55732;52.248;-0.844;2022-08-01T08:46:07;101113.45;;;21.39;47.95
62926;BME280;55732;52.248;-0.844;2022-08-01T08:48:34;101113.48;;;21.29;47.66
62926;BME280;55732;52.248;-0.844;2022-08-01T08:51:00;101116.89;;;21.13;47.88
62926;BME280;55732;52.248;-0.844;2022-08-01T08:53:27;101117.73;;;20.95;48.11
62926;BME280;55732;52.248;-0.844;2022-08-01T08:55:52;101110.53;;;20.86;47.77
62926;BME280;55732;52.248;-0.844;2022-08-01T08:58:20;101110.55;;;20.96;47.45
62926;BME280;55732;52.248;-0.844;2022-08-01T09:00:46;101105.50;;;21.17;46.95
62926;BME280;55732;52.248;-0.844;2022-08-01T09:03:13;101110.30;;;21.28;46.77
62926;BME280;55732;52.248;-0.844;2022-08-01T09:05:38;101108.66;;;21.29;47.01
62926;BME280;55732;52.248;-0.844;2022-08-01T09:08:07;101106.88;;;21.71;46.30
62926;BME280;55732;52.248;-0.844;2022-08-01T09:10:33;101104.04;;;22.65;44.68
62926;BME280;55732;52.248;-0.844;2022-08-01T09:13:10;101100.37;;;24.13;42.22
62926;BME280;55732;52.248;-0.844;2022-08-01T09:15:51;101104.22;;;24.27;42.10
62926;BME280;55732;52.248;-0.844;2022-08-01T09:18:39;101097.87;;;24.35;41.11
62926;BME280;55732;52.248;-0.844;2022-08-01T09:21:13;101097.43;;;24.89;40.20
62926;BME280;55732;52.248;-0.844;2022-08-01T09:23:46;101094.84;;;25.21;39.88
62926;BME280;55732;52.248;-0.844;2022-08-01T09:26:15;101091.13;;;25.52;39.21
62926;BME280;55732;52.248;-0.844;2022-08-01T09:28:43;101085.77;;;27.67;37.06
62926;BME280;55732;52.248;-0.844;2022-08-01T09:31:18;101088.30;;;28.62;35.59
62926;BME280;55732;52.248;-0.844;2022-08-01T09:33:54;101084.77;;;29.25;34.13
62926;BME280;55732;52.248;-0.844;2022-08-01T09:36:23;101085.23;;;31.31;31.28
62926;BME280;55732;52.248;-0.844;2022-08-01T09:38:50;101089.29;;;32.04;30.39
62926;BME280;55732;52.248;-0.844;2022-08-01T09:41:17;101088.41;;;31.48;30.17
62926;BME280;55732;52.248;-0.844;2022-08-01T09:43:53;101091.02;;;30.87;30.38
62926;BME280;55732;52.248;-0.844;2022-08-01T09:46:19;101098.41;;;30.02;30.94
62926;BME280;55732;52.248;-0.844;2022-08-01T09:49:05;101090.66;;;30.43;30.78
62926;BME280;55732;52.248;-0.844;2022-08-01T09:51:35;101091.80;;;30.23;30.57
62926;BME280;55732;52.248;-0.844;2022-08-01T09:54:03;101084.93;;;31.18;29.04
62926;BME280;55732;52.248;-0.844;2022-08-01T09:56:37;101086.77;;;32.40;28.33
62926;BME280;55732;52.248;-0.844;2022-08-01T09:59:03;101087.23;;;32.28;28.03
62926;BME280;55732;52.248;-0.844;2022-08-01T10:01:43;101084.05;;;31.64;28.57
62926;BME280;55732;52.248;-0.844;2022-08-01T10:04:18;101083.54;;;31.22;28.73
62926;BME280;55732;52.248;-0.844;2022-08-01T10:06:49;101082.77;;;31.87;28.34
62926;BME280;55732;52.248;-0.844;2022-08-01T10:09:30;101083.30;;;33.47;26.77
62926;BME280;55732;52.248;-0.844;2022-08-01T10:11:56;101086.05;;;34.37;25.82
62926;BME280;55732;52.248;-0.844;2022-08-01T10:14:25;101087.05;;;34.98;25.00
62926;BME280;55732;52.248;-0.844;2022-08-01T10:16:52;101092.92;;;33.56;25.69
62926;BME280;55732;52.248;-0.844;2022-08-01T10:19:22;101091.20;;;32.18;26.83
62926;BME280;55732;52.248;-0.844;2022-08-01T10:21:52;101088.56;;;31.23;27.47
62926;BME280;55732;52.248;-0.844;2022-08-01T10:24:20;101076.58;;;32.08;26.80
62926;BME280;55732;52.248;-0.844;2022-08-01T10:26:52;101078.17;;;31.84;26.93
62926;BME280;55732;52.248;-0.844;2022-08-01T10:29:20;101071.95;;;32.02;26.87
62926;BME280;55732;52.248;-0.844;2022-08-01T10:31:46;101073.05;;;32.43;26.32
62926;BME280;55732;52.248;-0.844;2022-08-01T10:34:16;101081.00;;;32.63;25.79
62926;BME280;55732;52.248;-0.844;2022-08-01T10:36:47;101076.25;;;32.44;26.19
62926;BME280;55732;52.248;-0.844;2022-08-01T10:39:13;101072.87;;;31.51;26.74
62926;BME280;55732;52.248;-0.844;2022-08-01T10:41:40;101070.10;;;30.43;27.78
62926;BME280;55732;52.248;-0.844;2022-08-01T10:44:08;101075.55;;;29.65;28.50
62926;BME280;55732;52.248;-0.844;2022-08-01T10:46:37;101072.19;;;29.19;29.36
62926;BME280;55732;52.248;-0.844;2022-08-01T10:49:24;101068.77;;;29.21;29.56
62926;BME280;55732;52.248;-0.844;2022-08-01T10:51:49;101071.12;;;29.06;29.59
62926;BME280;55732;52.248;-0.844;2022-08-01T10:54:14;101069.87;;;28.64;30.10
62926;BME280;55732;52.248;-0.844;2022-08-01T10:59:08;101068.53;;;28.08;30.22
62926;BME280;55732;52.248;-0.844;2022-08-01T11:01:34;101070.20;;;27.81;30.97
62926;BME280;55732;52.248;-0.844;2022-08-01T11:09:28;101070.70;;;27.27;32.30
62926;BME280;55732;52.248;-0.844;2022-08-01T11:14:26;101067.77;;;26.90;33.08
62926;BME280;55732;52.248;-0.844;2022-08-01T11:16:52;101066.21;;;26.74;33.34
62926;BME280;55732;52.248;-0.844;2022-08-01T11:19:17;101059.85;;;26.60;33.45
62926;BME280;55732;52.248;-0.844;2022-08-01T11:27:20;101059.91;;;26.44;34.04
62926;BME280;55732;52.248;-0.844;2022-08-01T11:32:55;101065.04;;;26.46;33.98
62926;BME280;55732;52.248;-0.844;2022-08-01T11:35:24;101061.68;;;26.32;34.39
62926;BME280;55732;52.248;-0.844;2022-08-01T11:37:53;101063.55;;;26.19;34.68
62926;BME280;55732;52.248;-0.844;2022-08-01T11:40:28;101058.90;;;26.12;35.03
62926;BME280;55732;52.248;-0.844;2022-08-01T11:45:55;101054.83;;;25.92;35.27
62926;BME280;55732;52.248;-0.844;2022-08-01T11:48:25;101056.27;;;25.95;35.18
62926;BME280;55732;52.248;-0.844;2022-08-01T11:50:55;101049.04;;;26.02;34.96
62926;BME280;55732;52.248;-0.844;2022-08-01T11:53:22;101045.09;;;25.98;34.93
62926;BME280;55732;52.248;-0.844;2022-08-01T11:55:49;101037.51;;;26.23;34.93
62926;BME280;55732;52.248;-0.844;2022-08-01T11:58:23;101036.65;;;26.49;35.09
62926;BME280;55732;52.248;-0.844;2022-08-01T12:00:50;101033.02;;;26.58;34.34
62926;BME280;55732;52.248;-0.844;2022-08-01T12:03:16;101036.83;;;26.34;34.54
62926;BME280;55732;52.248;-0.844;2022-08-01T12:05:48;101033.63;;;26.18;34.99
62926;BME280;55732;52.248;-0.844;2022-08-01T12:08:24;101028.02;;;26.43;35.12
62926;BME280;55732;52.248;-0.844;2022-08-01T12:10:49;101025.14;;;26.69;35.21
62926;BME280;55732;52.248;-0.844;2022-08-01T12:13:16;101024.57;;;26.87;35.24
62926;BME280;55732;52.248;-0.844;2022-08-01T12:15:43;101015.84;;;26.94;35.01
62926;BME280;55732;52.248;-0.844;2022-08-01T12:18:10;101013.44;;;26.98;35.17
62926;BME280;55732;52.248;-0.844;2022-08-01T12:20:38;101016.55;;;27.01;35.12
62926;BME280;55732;52.248;-0.844;2022-08-01T12:23:07;101012.48;;;27.05;35.42
62926;BME280;55732;52.248;-0.844;2022-08-01T12:25:35;101008.54;;;27.15;35.23
62926;BME280;55732;52.248;-0.844;2022-08-01T12:28:05;101014.19;;;27.32;35.06
62926;BME280;55732;52.248;-0.844;2022-08-01T12:30:31;101007.30;;;27.46;34.79
62926;BME280;55732;52.248;-0.844;2022-08-01T12:33:01;101005.16;;;27.54;34.44
62926;BME280;55732;52.248;-0.844;2022-08-01T12:35:29;101000.52;;;27.64;34.55
62926;BME280;55732;52.248;-0.844;2022-08-01T12:37:57;100999.64;;;27.75;34.66
62926;BME280;55732;52.248;-0.844;2022-08-01T12:40:29;100992.09;;;27.79;34.20
62926;BME280;55732;52.248;-0.844;2022-08-01T12:43:07;100985.87;;;27.86;33.87
62926;BME280;55732;52.248;-0.844;2022-08-01T12:45:36;100983.65;;;27.73;34.35
62926;BME280;55732;52.248;-0.844;2022-08-01T12:48:10;100976.77;;;27.73;34.43
62926;BME280;55732;52.248;-0.844;2022-08-01T12:50:38;100975.29;;;27.79;34.17
62926;BME280;55732;52.248;-0.844;2022-08-01T12:53:04;100975.64;;;27.87;33.95
62926;BME280;55732;52.248;-0.844;2022-08-01T12:55:30;100977.33;;;27.86;34.07
62926;BME280;55732;52.248;-0.844;2022-08-01T12:58:10;100964.76;;;27.77;34.08
62926;BME280;55732;52.248;-0.844;2022-08-01T13:00:37;100967.07;;;27.70;34.15
62926;BME280;55732;52.248;-0.844;2022-08-01T13:03:08;100962.95;;;27.74;34.62
62926;BME280;55732;52.248;-0.844;2022-08-01T13:05:48;100957.74;;;27.76;34.05
62926;BME280;55732;52.248;-0.844;2022-08-01T13:08:19;100955.20;;;27.76;34.19
62926;BME280;55732;52.248;-0.844;2022-08-01T13:10:46;100955.54;;;27.79;34.28